Terminal Aerodrome Forecast
Issued by NWS

Home | Current Version | Previous Version | Text Only | Print | Product List | Glossary On
Versions: 1 2 3 4 5 6 7 8 9 10 11 12 13 14 15 16 17 18 19 20 21 22 23 24 25 26
000
FTAK31 PAJK 160805 AAA
TAFAWG
TAF AMD
PAWG 160805Z 1608/1706 12003KT 6SM -RA SCT007 BKN015 OVC025
      TEMPO 1608/1612 5SM -RA BR BKN007 OVC025
     FM161800 12005KT P6SM -RA SCT025 OVC040
     AMD LTD TO CLD VIS AND WIND 1608/1615=

USA.gov is the U.S. government's official web portal to all federal, state and local government web resources and services.